West Lafayette, IN

3:27 PM EDT on March 28, 2015 (GMT -0400)
Purdue Univ | | Change Station
CLOSE
Current Station
Airport
Location: Lafayette,
Elevation: 604 ft
Nearby Weather Stations
Active Advisory: Flood Warning

Elev 604 ft 40.41 °N, 86.93 °W | Updated 33 minutes ago

Clear
Clear
34 °F
Feels Like 34 °F
N
0
Wind Variable Wind from North

Today
High -- | Low -- °F
--% Chance of Precip.
Yesterday
High -- | Low -- °F
Precip. -- in
7:38 AM 8:08 PM
Waxing Gibbous, 64% visible
Pressure 30.35 in
Visibility 10.0 miles
Clouds Clear
Dew Point 9 °F
Humidity 35%
Rainfall 0.00 in
Snow Depth Not available.
UV 8 out of 12
Pollen 6.50 out of 12
Air Quality Not available.
Flu Activity Not available.
METAR KLAF 281854Z 00000KT 10SM CLR 01/M13 A3032 RMK AO2 SLP275 T00111128

More Conditions Fewer Conditions

Pressure 30.35 in
Visibility 10.0 miles
Clouds Clear
Dew Point 9 °F
Humidity 35%
Rainfall 0.00 in
Snow Depth Not available.
UV 8 out of 12
Pollen 6.50 out of 12
Air Quality Not available.
Flu Activity Not available.
METAR KLAF 281854Z 00000KT 10SM CLR 01/M13 A3032 RMK AO2 SLP275 T00111128

More Conditions Fewer Conditions

10-Day Weather Forecast

Almanac

Astronomy

Mar. 28, 2015 Rise Set
Actual Time
Civil Twilight
Nautical Twilight
Astronomical Twilight
Moon
Length of Visible Light
Length of Day
Tomorrow will be .
, % of the Moon is Illuminated

Today's Extremes

State Highs State Lows

Community

WunderPhotos

Upload Photos

1,809,071 photos uploaded!

WunderBlogs® & News

Nearby

Air Quality

  Air Quality AQ Index Pollutant
Not available.

Snow Depth

Station Depth Elevation

Earthquake Activity

City Distance Mag. Time & Date
Minimum magnitude displayed is 2.5.

Coastal Water Temperatures

Place Temperature

Stations

Nearby Weather Stations

Station Location Temp. Windchill Dew Point Humidity Wind Precip. Elev Updated Type
                   
Flood Warning
Statement as of 1:30 PM EDT on March 28, 2015

The Flood Warning continues for
the Wabash River at Lafayette.
* Until Sunday evening.
* At 1:01 PM Saturday the stage was 12.9 feet.
* Flood stage is 11.0 feet.
* Minor flooding is occurring and minor flooding is forecast.
* Forecast... the river will continue to fall to below flood stage by
tomorrow late morning.
* At 12.0 feet... high water affects a few low river Cabins and County
roads.


Lat... Lon 4056 8673 4048 8688 4040 8709 4033 8709
      4040 8688 4054 8670